WetterOnline ( https://www.wetteronline.de )

Wetter aktuell Bietigheim-Bissingen

Aktuelles Wetter: Schnarrenberg/Stuttgart (315m)

6-stündlich | Neueste Meldungen
Ortszeit Temperatur Wetter
Mi, 14.04. 14:00 6.2° C bedeckt
Mi, 14.04. 8:00 0.0° C leicht bewölkt
Mi, 14.04. 2:00 1.7° C wolkenlos
Di, 13.04. 20:00 6.7° C wolkig
Di, 13.04. 14:00 6.0° C wolkig
Di, 13.04. 8:00 0.6° C wolkig
Di, 13.04. 2:00 1.3° C bewölkt
Mo, 12.04. 20:00 5.5° C leicht bewölkt
Ortszeit Temperatur Wetter
Mi, 14.04. 17:00 4.5° C Sprühregen
Mi, 14.04. 16:50 4.5° C Sprühregen
Mi, 14.04. 16:40 5.1° C Sprühregen
Mi, 14.04. 16:30 5.0° C Sprühregen
Mi, 14.04. 16:20 5.0° C Sprühregen
Mi, 14.04. 16:10 5.7° C bewölkt
Mi, 14.04. 16:00 5.4° C bedeckt
Mi, 14.04. 15:30 4.8° C Sprühregen
Mi, 14.04. 15:00 4.5° C bedeckt
Mi, 14.04. 14:30 4.7° C Sprühregen
Mi, 14.04. 14:00 6.2° C bedeckt
Ortszeit Relative Feuchte Sichtweite
Mi, 14.04. 14:00 48% 50 km
Mi, 14.04. 8:00 84% 30 km
Mi, 14.04. 2:00 63% 60 km
Di, 13.04. 20:00 39% >70 km
Di, 13.04. 14:00 44% 65 km
Di, 13.04. 8:00 81% 35 km
Di, 13.04. 2:00 80% 50 km
Mo, 12.04. 20:00 51% >70 km
Ortszeit Relative Feuchte Sichtweite
Mi, 14.04. 17:00 63% 45 km
Mi, 14.04. 16:50 63% -
Mi, 14.04. 16:40 61% -
Mi, 14.04. 16:30 60% 45 km
Mi, 14.04. 16:20 60% -
Mi, 14.04. 16:10 56% -
Mi, 14.04. 16:00 56% >70 km
Mi, 14.04. 15:30 60% 55 km
Mi, 14.04. 15:00 62% 55 km
Mi, 14.04. 14:30 62% 45 km
Mi, 14.04. 14:00 48% 50 km
Ortszeit Niederschlagsmenge Niederschlagsart
Mi, 14.04. 14:00 0.1 l/m2 in 6 Std. Niederschlag
Mi, 14.04. 8:00 0.0 l/m2 in 12 Std. -
Mi, 14.04. 2:00 0.0 l/m2 in 6 Std. -
Di, 13.04. 20:00 0.1 l/m2 in 12 Std. Regen
Di, 13.04. 14:00 0.1 l/m2 in 6 Std. Schnee, Regen
Di, 13.04. 8:00 0.0 l/m2 in 12 Std. -
Di, 13.04. 2:00 0.0 l/m2 in 6 Std. -
Mo, 12.04. 20:00 0.1 l/m2 in 12 Std. -
Ortszeit Niederschlagsmenge Niederschlagsart
Mi, 14.04. 17:00 0.1 l/m2 in 1 Std. Schnee, Regen
Mi, 14.04. 16:50 keine Meldung -
Mi, 14.04. 16:40 keine Meldung -
Mi, 14.04. 16:30 0.1 l/m2 in 1 Std. -
Mi, 14.04. 16:20 keine Meldung -
Mi, 14.04. 16:10 keine Meldung -
Mi, 14.04. 16:00 0.1 l/m2 in 1 Std. Regen
Mi, 14.04. 15:30 0.1 l/m2 in 1 Std. -
Mi, 14.04. 15:00 0.1 l/m2 in 1 Std. Schnee, Regen
Mi, 14.04. 14:30 0.1 l/m2 in 1 Std. -
Mi, 14.04. 14:00 0.1 l/m2 in 1 Std. Niederschlag
Ortszeit Stärke Spitze Richtung
km/h Bft. km/h Grad Sektor
Mi, 14.04. 14:00 4 1 25 140° SO
Mi, 14.04. 8:00 0 0 7 - -
Mi, 14.04. 2:00 7 2 14 260° W
Di, 13.04. 20:00 7 2 32 40° NO
Di, 13.04. 14:00 17 3 28 10° N
Di, 13.04. 8:00 7 2 11 300° NW
Di, 13.04. 2:00 4 1 22 280° W
Mo, 12.04. 20:00 11 2 29 290° W
Ortszeit Stärke Spitze Richtung
km/h Bft. km/h Grad Sektor
Mi, 14.04. 17:00 11 2 31 100° O
Mi, 14.04. 16:50 11 2 - 100° O
Mi, 14.04. 16:40 9 2 - 50° NO
Mi, 14.04. 16:30 18 3 32 330° NW
Mi, 14.04. 16:20 18 3 - 330° NW
Mi, 14.04. 16:10 9 2 - 290° W
Mi, 14.04. 16:00 7 2 25 290° W
Mi, 14.04. 15:30 11 2 25 280° W
Mi, 14.04. 15:00 18 3 32 320° NW
Mi, 14.04. 14:30 22 4 32 350° N
Mi, 14.04. 14:00 4 1 25 140° SO
Ortszeit Untergrenze Bedeckung Gattung
total tief tief mittel hoch
Mi, 14.04. 14:00 1800 m 8/8 8/8 - - -
Mi, 14.04. 8:00 1500 m 3/8 2/8 - - -
Mi, 14.04. 2:00 - 0/8 0/8 - - -
Di, 13.04. 20:00 1800 m 7/8 7/8 - - -
Di, 13.04. 14:00 1440 m 6/8 6/8 - - -
Di, 13.04. 8:00 2700 m 5/8 5/8 - - -
Di, 13.04. 2:00 1380 m 8/8 4/8 - - -
Mo, 12.04. 20:00 2700 m 2/8 2/8 - - -
Ortszeit Bedeckungsgrad in Achtel und Wolkenuntergrenze
Mi, 14.04. 17:00 1(420m) 7(900m) 8(1080m)
Mi, 14.04. 16:50 1(420m) 7(900m) 8(1080m)
Mi, 14.04. 16:40 1(570m) 2(810m) 7(990m)
Mi, 14.04. 16:30 1(600m) 4(840m) 8(1080m)
Mi, 14.04. 16:20 1(600m) 4(840m) 8(1080m)
Mi, 14.04. 16:10 1(600m) 3(810m) 7(1080m)
Mi, 14.04. 16:00 1(510m) 7(1200m) 8(1500m)
Mi, 14.04. 15:30 2(540m) 7(1440m) 8(2100m)
Mi, 14.04. 15:00 2(1410m) 8(1800m) 8(2700m)
Mi, 14.04. 14:30 4(1290m) 8(1800m) 8(2700m)
Mi, 14.04. 14:00 8(1800m) 8(2700m)
Ortszeit Luftdruck NN (hPa) Tendenz (hPa in 3 Std.)
Mi, 14.04. 14:00 1028 - 1,3
Mi, 14.04. 8:00 1031 + 0,2
Mi, 14.04. 2:00 1031 - 0,6
Di, 13.04. 20:00 1030 - 0,2
Di, 13.04. 14:00 1031 - 0,8
Di, 13.04. 8:00 1032 + 0,9
Di, 13.04. 2:00 1031 + 0,3
Mo, 12.04. 20:00 1029 + 0,7
Ortszeit Luftdruck NN (hPa) Tendenz (hPa in 3 Std.)
Mi, 14.04. 17:00 1028 - 0,4
Mi, 14.04. 16:50 1028 keine Meldung
Mi, 14.04. 16:40 1028 keine Meldung
Mi, 14.04. 16:30 1028 - 0,7
Mi, 14.04. 16:20 1028 keine Meldung
Mi, 14.04. 16:10 1028 keine Meldung
Mi, 14.04. 16:00 1028 - 0,7
Mi, 14.04. 15:30 1029 - 0,4
Mi, 14.04. 15:00 1029 - 0,7
Mi, 14.04. 14:30 1029 - 0,9
Mi, 14.04. 14:00 1028 - 1,3
Ortszeit Schneehöhe (cm)
Mi, 14.04. 14:00 0
Mi, 14.04. 8:00 0
Mi, 14.04. 2:00 0
Di, 13.04. 20:00 0
Di, 13.04. 14:00 0
Di, 13.04. 8:00 0
Di, 13.04. 2:00 0
Mo, 12.04. 20:00 0
Ortszeit Schneehöhe (cm)
Mi, 14.04. 17:00 0
Mi, 14.04. 16:50 0
Mi, 14.04. 16:40 0
Mi, 14.04. 16:30 0
Mi, 14.04. 16:20 0
Mi, 14.04. 16:10 0
Mi, 14.04. 16:00 0
Mi, 14.04. 15:30 0
Mi, 14.04. 15:00 0
Mi, 14.04. 14:30 0
Mi, 14.04. 14:00 0
Link zu dieser Seite / Seite empfehlen

Das Wetter in ...